Time;durP1;ratioP1;P1;durP2;ratioP2;P2;SDS_P1;SDS_P2;PMS_P1;PMS_P2;Temp;Humidity;BMP_temperature;BMP_pressure;BME280_temperature;BME280_humidity;BME280_pressure;Samples;Min_cycle;Max_cycle;Signal;HPM_P1;HPM_P2
2021/07/15 00:00:20;;;;;;;9.68;3.63;;;21.80;99.90;;;;;;5094630;28;20044;-90
2021/07/15 00:02:46;;;;;;;9.98;4.68;;;21.70;99.90;;;;;;5094343;28;20032;-90
2021/07/15 00:05:13;;;;;;;10.73;3.72;;;21.70;99.90;;;;;;5086751;28;20047;-90
2021/07/15 00:07:39;;;;;;;12.10;4.30;;;21.70;99.90;;;;;;5095232;28;20111;-90
2021/07/15 00:10:35;;;;;;;10.27;3.90;;;21.70;99.90;;;;;;5072444;28;20119;-90
2021/07/15 00:13:02;;;;;;;7.60;3.80;;;21.80;99.90;;;;;;5082960;28;20032;-90
2021/07/15 00:15:29;;;;;;;10.57;3.97;;;21.80;99.90;;;;;;5077791;28;20062;-91
2021/07/15 00:17:56;;;;;;;7.70;3.25;;;21.80;99.90;;;;;;5076769;28;20043;-90
2021/07/15 00:20:23;;;;;;;8.18;4.10;;;21.80;99.90;;;;;;5093356;28;20427;-91
2021/07/15 00:22:49;;;;;;;10.60;3.92;;;21.80;99.90;;;;;;5095600;28;20111;-92
2021/07/15 00:25:18;;;;;;;11.50;3.75;;;21.70;99.90;;;;;;5084381;28;20117;-91
2021/07/15 00:27:46;;;;;;;11.57;4.47;;;21.70;99.90;;;;;;5064718;28;20494;-90
2021/07/15 00:30:13;;;;;;;7.20;3.83;;;21.60;99.90;;;;;;5100964;28;20028;-91
2021/07/15 00:32:39;;;;;;;9.13;4.53;;;21.60;99.90;;;;;;5110594;28;20082;-89
2021/07/15 00:35:06;;;;;;;9.65;4.15;;;21.60;99.90;;;;;;5093201;28;20028;-90
2021/07/15 00:37:32;;;;;;;9.63;3.60;;;21.60;99.90;;;;;;5072994;28;20108;-91
2021/07/15 00:39:58;;;;;;;7.07;3.25;;;21.50;99.90;;;;;;5075550;28;20036;-91
2021/07/15 00:42:24;;;;;;;7.38;3.13;;;21.50;99.90;;;;;;5072728;28;20024;-91
2021/07/15 00:44:50;;;;;;;14.05;4.00;;;21.50;99.90;;;;;;5094145;28;20418;-90
2021/07/15 00:47:15;;;;;;;6.10;2.95;;;21.40;99.90;;;;;;5075475;28;20034;-93
2021/07/15 00:49:41;;;;;;;7.10;3.10;;;21.40;99.90;;;;;;5093687;28;20032;-90
2021/07/15 00:52:11;;;;;;;6.40;3.65;;;21.30;99.90;;;;;;5093249;28;20024;-91
2021/07/15 00:54:42;;;;;;;11.57;3.40;;;21.30;99.90;;;;;;5094749;28;20020;-92
2021/07/15 00:57:10;;;;;;;7.53;2.72;;;21.30;99.90;;;;;;5075136;28;20120;-89
2021/07/15 00:59:36;;;;;;;10.63;2.83;;;21.30;99.90;;;;;;5073543;28;20082;-92
2021/07/15 01:02:02;;;;;;;7.82;3.50;;;21.30;99.90;;;;;;5073271;28;20044;-92
2021/07/15 01:04:29;;;;;;;6.90;2.88;;;21.20;99.90;;;;;;5087537;28;20097;-90
2021/07/15 01:06:55;;;;;;;7.15;2.85;;;21.10;99.90;;;;;;5077369;28;20027;-90
2021/07/15 01:09:21;;;;;;;7.38;2.85;;;21.20;99.90;;;;;;5072211;28;20021;-92
2021/07/15 01:12:13;;;;;;;9.20;3.00;;;21.20;99.90;;;;;;5073902;28;20028;-89
2021/07/15 01:15:07;;;;;;;9.80;3.13;;;21.20;99.90;;;;;;5090654;28;20506;-90
2021/07/15 01:17:56;;;;;;;4.15;2.47;;;21.10;99.90;;;;;;5071107;28;20520;-91
2021/07/15 01:20:52;;;;;;;5.57;3.22;;;21.00;99.90;;;;;;5056678;28;20025;-91
2021/07/15 01:23:41;;;;;;;10.45;3.55;;;21.10;99.90;;;;;;5088888;28;20028;-91
2021/07/15 01:26:27;;;;;;;10.82;3.53;;;21.00;99.90;;;;;;5085440;28;20034;-91
2021/07/15 01:29:30;;;;;;;7.72;2.35;;;21.00;99.90;;;;;;5092420;28;20032;-89
2021/07/15 01:32:01;;;;;;;8.25;2.70;;;21.10;99.90;;;;;;5089892;28;20032;-90
2021/07/15 01:34:28;;;;;;;12.23;2.35;;;21.10;99.90;;;;;;5089979;28;20024;-90
2021/07/15 01:36:55;;;;;;;5.22;2.25;;;21.10;99.90;;;;;;5073833;28;20057;-90
2021/07/15 01:39:28;;;;;;;7.30;2.70;;;21.10;99.90;;;;;;5089552;28;20016;-90
2021/07/15 01:41:59;;;;;;;5.78;2.38;;;21.00;99.90;;;;;;5092865;28;20439;-88
2021/07/15 01:44:28;;;;;;;8.60;3.35;;;21.00;99.90;;;;;;5070979;28;20043;-89
2021/07/15 01:46:54;;;;;;;4.95;2.25;;;21.00;99.90;;;;;;5090632;28;20024;-89
2021/07/15 01:49:20;;;;;;;6.85;3.47;;;21.00;99.90;;;;;;5089736;28;20039;-88
2021/07/15 01:51:47;;;;;;;4.78;2.53;;;21.00;99.90;;;;;;5070380;28;20024;-89
2021/07/15 01:54:13;;;;;;;6.88;2.40;;;21.00;99.90;;;;;;5090276;28;20028;-90
2021/07/15 01:56:41;;;;;;;5.78;2.63;;;21.00;99.90;;;;;;5071874;28;20103;-88
2021/07/15 01:59:11;;;;;;;8.45;2.90;;;21.00;99.90;;;;;;5088141;28;20028;-90
2021/07/15 02:01:38;;;;;;;6.00;2.20;;;21.00;99.90;;;;;;5069795;28;20357;-89
2021/07/15 02:04:06;;;;;;;6.43;2.45;;;21.00;99.90;;;;;;5083373;28;20468;-88
2021/07/15 02:06:33;;;;;;;6.63;2.58;;;20.90;99.90;;;;;;5073845;28;20017;-87
2021/07/15 02:09:00;;;;;;;4.75;2.50;;;21.00;99.90;;;;;;5091692;28;20078;-89
2021/07/15 02:11:33;;;;;;;5.47;2.00;;;21.00;99.90;;;;;;5088795;28;20051;-89
2021/07/15 02:14:02;;;;;;;3.75;1.65;;;21.00;99.90;;;;;;5090015;28;20054;-88
2021/07/15 02:16:29;;;;;;;8.60;2.42;;;21.10;99.90;;;;;;5088488;28;20070;-89
2021/07/15 02:18:56;;;;;;;6.88;2.38;;;21.10;99.90;;;;;;5092159;28;20051;-90
2021/07/15 02:21:22;;;;;;;8.40;2.92;;;21.10;99.90;;;;;;5089285;28;20433;-90
2021/07/15 02:23:49;;;;;;;8.48;2.50;;;21.00;99.90;;;;;;5090977;28;20115;-90
2021/07/15 02:26:15;;;;;;;4.43;2.15;;;21.00;99.90;;;;;;5090351;28;20081;-88
2021/07/15 02:28:41;;;;;;;10.38;3.22;;;21.00;99.90;;;;;;5069281;28;20084;-89
2021/07/15 02:31:34;;;;;;;5.88;2.88;;;21.00;99.90;;;;;;5091611;28;20036;-93
2021/07/15 02:34:06;;;;;;;7.35;2.70;;;21.00;99.90;;;;;;5070184;28;20023;-89
2021/07/15 02:36:33;;;;;;;7.18;2.83;;;21.00;99.90;;;;;;5080565;28;20487;-93
2021/07/15 02:39:01;;;;;;;5.85;2.85;;;21.00;99.90;;;;;;5096140;28;20531;-90
2021/07/15 02:41:28;;;;;;;7.57;2.40;;;21.10;99.90;;;;;;5095528;28;20101;-90
2021/07/15 02:43:53;;;;;;;6.43;1.80;;;21.20;99.90;;;;;;5077607;28;20024;-92
2021/07/15 02:46:19;;;;;;;7.22;1.90;;;21.30;99.90;;;;;;5075604;28;20418;-91
2021/07/15 02:48:45;;;;;;;8.25;2.40;;;21.40;99.90;;;;;;5105671;28;20484;-91
2021/07/15 02:51:10;;;;;;;5.20;2.20;;;21.40;99.90;;;;;;5059352;28;20473;-91
2021/07/15 02:53:36;;;;;;;4.32;1.90;;;21.50;99.90;;;;;;5111716;28;20020;-89
2021/07/15 02:56:22;;;;;;;6.32;2.22;;;21.50;99.90;;;;;;5099119;28;20549;-93
2021/07/15 02:59:01;;;;;;;9.07;2.28;;;21.60;99.90;;;;;;5088440;28;20073;-92
2021/07/15 03:01:34;;;;;;;10.82;2.47;;;21.70;99.90;;;;;;5075038;28;20024;-92
2021/07/15 03:04:14;;;;;;;10.65;2.85;;;21.70;99.90;;;;;;5059192;28;20040;-91
2021/07/15 03:06:43;;;;;;;10.48;2.67;;;21.80;99.90;;;;;;5078483;28;20020;-89
2021/07/15 03:09:32;;;;;;;9.32;2.78;;;21.80;99.90;;;;;;5073832;28;20056;-90
2021/07/15 03:12:05;;;;;;;6.75;2.47;;;21.90;99.90;;;;;;5076686;28;20476;-92
2021/07/15 03:14:34;;;;;;;8.10;2.47;;;21.90;99.90;;;;;;5075745;28;20032;-90
2021/07/15 03:17:01;;;;;;;11.38;2.42;;;22.00;99.90;;;;;;5084220;28;20021;-90
2021/07/15 03:19:30;;;;;;;7.60;2.08;;;22.00;99.90;;;;;;5078115;28;20059;-92
2021/07/15 03:21:58;;;;;;;12.10;2.38;;;22.10;99.90;;;;;;5090768;28;20021;-91
2021/07/15 03:24:25;;;;;;;9.55;2.78;;;22.10;99.90;;;;;;5074349;28;20008;-91
2021/07/15 03:26:53;;;;;;;10.57;3.35;;;22.10;99.90;;;;;;5112513;28;20032;-90
2021/07/15 03:29:20;;;;;;;10.23;3.33;;;22.10;99.90;;;;;;5077166;28;20024;-89
2021/07/15 03:31:46;;;;;;;11.45;3.03;;;22.20;99.90;;;;;;5077585;28;20107;-90
2021/07/15 03:34:12;;;;;;;7.53;2.80;;;22.20;99.90;;;;;;5068668;28;20021;-90
2021/07/15 03:36:41;;;;;;;10.98;3.45;;;22.20;99.90;;;;;;5093204;28;20497;-91
2021/07/15 03:39:07;;;;;;;11.02;3.13;;;22.20;99.90;;;;;;5094092;28;20028;-89
2021/07/15 03:41:34;;;;;;;9.57;2.80;;;22.20;99.90;;;;;;5056756;28;20119;-89
2021/07/15 03:44:01;;;;;;;7.80;2.78;;;22.30;99.90;;;;;;5089061;28;20139;-91
2021/07/15 03:46:27;;;;;;;10.75;3.42;;;22.40;99.90;;;;;;5089039;28;20106;-89
2021/07/15 03:48:54;;;;;;;13.55;3.35;;;22.40;99.90;;;;;;5092019;28;20073;-91
2021/07/15 03:51:20;;;;;;;11.35;3.55;;;22.60;99.90;;;;;;5093127;28;20032;-87
2021/07/15 03:53:47;;;;;;;15.73;4.60;;;22.60;99.90;;;;;;5093597;28;20024;-90
2021/07/15 03:56:14;;;;;;;11.57;3.47;;;22.70;99.90;;;;;;5098667;28;20039;-89
2021/07/15 03:58:43;;;;;;;10.27;3.22;;;22.70;99.90;;;;;;5068172;28;20050;-88
2021/07/15 04:01:11;;;;;;;12.13;3.42;;;22.80;99.90;;;;;;5092286;28;20128;-88
2021/07/15 04:03:39;;;;;;;7.57;2.80;;;22.70;99.90;;;;;;5091962;28;20749;-88
2021/07/15 04:06:07;;;;;;;12.00;4.05;;;22.70;99.90;;;;;;5075562;28;20024;-88
2021/07/15 04:08:35;;;;;;;11.13;3.60;;;22.70;99.90;;;;;;5092646;28;20488;-90
2021/07/15 04:11:03;;;;;;;13.52;3.75;;;22.70;99.90;;;;;;5090377;28;20433;-88
2021/07/15 04:13:29;;;;;;;14.40;3.78;;;22.70;99.90;;;;;;5074668;28;20060;-89
2021/07/15 04:15:55;;;;;;;10.07;3.50;;;22.60;99.90;;;;;;5068362;28;20017;-90
2021/07/15 04:18:28;;;;;;;14.13;4.20;;;22.50;99.90;;;;;;5074289;28;20506;-91
2021/07/15 04:20:56;;;;;;;15.85;3.63;;;22.50;99.90;;;;;;5093611;28;20028;-90
2021/07/15 04:23:23;;;;;;;8.93;3.08;;;22.40;99.90;;;;;;5074406;28;20375;-90
2021/07/15 04:25:52;;;;;;;14.80;3.72;;;22.40;99.90;;;;;;5074583;28;20028;-89
2021/07/15 04:28:18;;;;;;;11.35;3.42;;;22.30;99.90;;;;;;5074644;28;20492;-89
2021/07/15 04:31:22;;;;;;;17.77;4.72;;;22.40;99.90;;;;;;5075434;28;20545;-90
2021/07/15 04:33:48;;;;;;;16.25;4.07;;;22.30;99.90;;;;;;5071492;28;20024;-89
2021/07/15 04:36:13;;;;;;;14.98;3.75;;;22.30;99.90;;;;;;5093566;28;20024;-90
2021/07/15 04:38:41;;;;;;;13.40;3.95;;;22.30;99.90;;;;;;5100610;28;20052;-90
2021/07/15 04:41:10;;;;;;;10.45;3.65;;;22.30;99.90;;;;;;5076289;28;20480;-90
2021/07/15 04:43:36;;;;;;;15.02;3.67;;;22.40;99.90;;;;;;5080099;28;20032;-89
2021/07/15 04:46:03;;;;;;;11.80;4.60;;;22.50;99.90;;;;;;5078838;28;20019;-89
2021/07/15 04:48:28;;;;;;;14.10;3.83;;;22.90;99.90;;;;;;5072894;28;20033;-89
2021/07/15 04:50:56;;;;;;;12.05;3.58;;;23.40;99.90;;;;;;5074403;28;20032;-91
2021/07/15 04:53:24;;;;;;;13.50;3.20;;;23.70;99.90;;;;;;5090815;28;20111;-91
2021/07/15 04:55:55;;;;;;;12.73;3.85;;;23.80;99.90;;;;;;5073100;28;20027;-89
2021/07/15 04:58:23;;;;;;;10.00;3.55;;;23.90;99.90;;;;;;5073902;28;20062;-92
2021/07/15 05:00:49;;;;;;;9.32;3.45;;;24.00;99.90;;;;;;5091268;28;20039;-88
2021/07/15 05:03:30;;;;;;;11.48;2.85;;;24.10;99.90;;;;;;5091778;28;20038;-91
2021/07/15 05:05:56;;;;;;;10.05;2.90;;;24.30;99.90;;;;;;5072887;28;20029;-90
2021/07/15 05:08:22;;;;;;;13.07;2.97;;;24.20;99.90;;;;;;5055500;28;20484;-90
2021/07/15 05:10:48;;;;;;;7.35;3.13;;;24.20;99.90;;;;;;5104247;28;20112;-90
2021/07/15 05:13:14;;;;;;;8.82;2.38;;;24.20;99.90;;;;;;5101576;28;20431;-89
2021/07/15 05:15:40;;;;;;;8.65;2.58;;;24.20;99.90;;;;;;5090640;28;20419;-88
2021/07/15 05:18:06;;;;;;;9.63;2.63;;;24.20;99.90;;;;;;5094238;28;20028;-91
2021/07/15 05:20:31;;;;;;;10.63;2.42;;;24.20;99.90;;;;;;5091372;28;20020;-91
2021/07/15 05:22:57;;;;;;;9.10;2.78;;;24.20;99.90;;;;;;5089870;28;20024;-87
2021/07/15 05:25:23;;;;;;;8.00;2.25;;;24.20;99.90;;;;;;5101415;28;20028;-89
2021/07/15 05:27:49;;;;;;;8.52;2.13;;;24.40;99.90;;;;;;5059748;28;20111;-90
2021/07/15 05:30:15;;;;;;;12.73;3.33;;;24.40;99.90;;;;;;5111653;28;20093;-90
2021/07/15 05:32:41;;;;;;;9.02;2.53;;;24.40;99.90;;;;;;5090530;28;20012;-90
2021/07/15 05:35:07;;;;;;;8.05;3.03;;;24.50;99.90;;;;;;5090146;28;20131;-91
2021/07/15 05:37:34;;;;;;;7.35;2.55;;;24.50;99.90;;;;;;5065702;28;20039;-91
2021/07/15 05:40:00;;;;;;;9.07;2.38;;;24.60;99.90;;;;;;5092982;28;20035;-91
2021/07/15 05:42:25;;;;;;;8.98;3.08;;;24.70;99.90;;;;;;5104886;28;20039;-91
2021/07/15 05:44:52;;;;;;;10.93;2.92;;;24.90;99.90;;;;;;5069931;28;20032;-90
2021/07/15 05:47:18;;;;;;;6.50;2.88;;;25.00;99.90;;;;;;5074774;28;20089;-94
2021/07/15 05:49:44;;;;;;;6.15;2.50;;;25.10;99.90;;;;;;5109576;28;20032;-90
2021/07/15 05:52:11;;;;;;;8.73;2.63;;;25.10;99.90;;;;;;5086885;28;20491;-91
2021/07/15 05:54:38;;;;;;;9.82;3.03;;;25.10;99.90;;;;;;5088187;28;20061;-91
2021/07/15 05:57:05;;;;;;;11.70;2.80;;;25.10;99.90;;;;;;5072257;28;20025;-89
2021/07/15 05:59:32;;;;;;;7.40;2.53;;;25.10;99.90;;;;;;5092497;28;20028;-90
2021/07/15 06:01:58;;;;;;;9.05;2.58;;;25.10;99.90;;;;;;5089876;28;20020;-91
2021/07/15 06:04:24;;;;;;;10.30;2.55;;;25.10;99.90;;;;;;5092721;28;20066;-87
2021/07/15 06:06:50;;;;;;;5.82;3.28;;;25.10;99.90;;;;;;5090279;28;20032;-92
2021/07/15 06:09:15;;;;;;;6.80;2.25;;;25.10;99.90;;;;;;5073544;28;20126;-90
2021/07/15 06:11:41;;;;;;;8.63;2.70;;;25.20;99.90;;;;;;5058570;28;20024;-90
2021/07/15 06:14:07;;;;;;;10.02;2.55;;;25.30;99.90;;;;;;5078892;28;20019;-91
2021/07/15 06:16:33;;;;;;;16.38;2.97;;;25.30;99.90;;;;;;5088639;28;20020;-93
2021/07/15 06:18:58;;;;;;;10.55;2.20;;;25.40;99.90;;;;;;5104728;28;20027;-90
2021/07/15 06:21:24;;;;;;;6.72;2.33;;;25.40;99.90;;;;;;5114335;28;20468;-89
2021/07/15 06:23:50;;;;;;;6.05;2.38;;;25.50;99.90;;;;;;5098360;28;20027;-90
2021/07/15 06:26:16;;;;;;;7.00;2.60;;;25.70;99.90;;;;;;5094300;28;20352;-90
2021/07/15 06:28:42;;;;;;;7.88;2.25;;;25.70;99.90;;;;;;5096705;28;20020;-94
2021/07/15 06:31:08;;;;;;;4.68;2.33;;;25.80;99.90;;;;;;5092107;28;20028;-93
2021/07/15 06:33:33;;;;;;;10.25;2.85;;;25.90;99.90;;;;;;5096477;28;20020;-93
2021/07/15 06:36:00;;;;;;;7.72;2.63;;;25.90;99.90;;;;;;5112613;28;20500;-90
2021/07/15 06:38:31;;;;;;;7.50;2.60;;;25.90;99.90;;;;;;5094455;28;20032;-93
2021/07/15 06:40:59;;;;;;;8.57;2.78;;;25.90;99.90;;;;;;5075378;28;20028;-92
2021/07/15 06:43:24;;;;;;;8.00;2.55;;;25.90;99.90;;;;;;5097901;28;20024;-92
2021/07/15 06:45:50;;;;;;;7.00;2.50;;;26.00;99.90;;;;;;5106030;28;20089;-92
2021/07/15 06:48:16;;;;;;;13.32;2.80;;;26.10;99.90;;;;;;5060105;28;20028;-92
2021/07/15 06:50:42;;;;;;;7.43;2.63;;;26.20;99.90;;;;;;5098626;28;20035;-91
2021/07/15 06:53:08;;;;;;;7.32;2.17;;;26.30;99.90;;;;;;5078378;28;20035;-90
2021/07/15 06:55:34;;;;;;;7.47;2.20;;;26.40;99.90;;;;;;5095882;28;20028;-90
2021/07/15 06:58:00;;;;;;;7.80;2.85;;;26.50;99.90;;;;;;5071120;28;20063;-90
2021/07/15 07:00:26;;;;;;;9.35;2.72;;;26.60;99.90;;;;;;5080733;28;20062;-90
2021/07/15 07:02:54;;;;;;;10.25;2.80;;;26.60;99.90;;;;;;5083805;28;20017;-92
2021/07/15 07:05:27;;;;;;;5.15;2.30;;;26.70;99.90;;;;;;5076552;28;20111;-91
2021/07/15 07:07:53;;;;;;;7.95;2.47;;;26.80;99.90;;;;;;5059887;28;20123;-91
2021/07/15 07:10:19;;;;;;;11.65;3.15;;;26.80;99.90;;;;;;5076329;28;20115;-91
2021/07/15 07:12:45;;;;;;;9.82;2.13;;;26.90;99.90;;;;;;5064850;28;20121;-92
2021/07/15 07:15:14;;;;;;;8.82;2.80;;;26.90;99.90;;;;;;5078398;28;21099;-92
2021/07/15 07:17:40;;;;;;;6.85;2.53;;;27.00;99.90;;;;;;5077584;28;20020;-91
2021/07/15 07:20:09;;;;;;;9.73;2.58;;;27.10;99.90;;;;;;5103286;28;20181;-93
2021/07/15 07:22:36;;;;;;;5.95;2.75;;;27.10;99.90;;;;;;5080628;28;20012;-92
2021/07/15 07:25:04;;;;;;;10.82;2.55;;;27.10;99.90;;;;;;5095672;28;20479;-93
2021/07/15 07:27:31;;;;;;;10.45;2.58;;;27.20;99.90;;;;;;5061423;28;20027;-93
2021/07/15 07:29:57;;;;;;;8.63;2.65;;;27.30;99.90;;;;;;5091473;28;20032;-90
2021/07/15 07:32:23;;;;;;;10.40;2.83;;;27.50;99.90;;;;;;5069854;28;20034;-92
2021/07/15 07:34:49;;;;;;;12.35;3.55;;;27.60;99.90;;;;;;5094214;28;20420;-92
2021/07/15 07:37:15;;;;;;;8.13;3.47;;;27.60;99.90;;;;;;5087183;28;20051;-93
2021/07/15 07:39:41;;;;;;;10.52;2.85;;;27.70;99.90;;;;;;5077664;28;20097;-92
2021/07/15 07:42:06;;;;;;;6.82;2.25;;;27.70;99.90;;;;;;5076291;28;20032;-94
2021/07/15 07:44:32;;;;;;;8.43;2.85;;;27.70;99.90;;;;;;5069816;28;20475;-93
2021/07/15 07:46:59;;;;;;;8.48;2.33;;;27.70;99.90;;;;;;5076753;28;20046;-94
2021/07/15 07:49:24;;;;;;;8.35;2.17;;;27.70;99.90;;;;;;5076843;28;20479;-95
2021/07/15 07:51:50;;;;;;;9.90;2.67;;;27.70;99.90;;;;;;5109819;28;20028;-93
2021/07/15 07:54:16;;;;;;;7.90;2.67;;;27.90;99.90;;;;;;5091910;28;20436;-93
2021/07/15 07:56:42;;;;;;;11.75;3.00;;;28.00;99.90;;;;;;5104558;28;20040;-92
2021/07/15 07:59:08;;;;;;;11.68;3.70;;;28.10;99.90;;;;;;5093295;28;20122;-92
2021/07/15 08:01:39;;;;;;;8.88;3.17;;;28.20;99.90;;;;;;5075928;28;20039;-94
2021/07/15 08:04:05;;;;;;;10.85;2.95;;;28.30;99.90;;;;;;5086761;28;20016;-91
2021/07/15 08:06:34;;;;;;;12.90;2.88;;;28.30;99.90;;;;;;5077323;28;20391;-91
2021/07/15 08:09:12;;;;;;;11.35;2.97;;;28.40;99.90;;;;;;5073471;28;20525;-91
2021/07/15 08:11:45;;;;;;;9.82;2.95;;;28.40;99.90;;;;;;5099789;28;20130;-92
2021/07/15 08:14:11;;;;;;;11.02;3.15;;;28.50;99.90;;;;;;5100047;28;20069;-94
2021/07/15 08:16:36;;;;;;;9.02;2.72;;;28.50;99.90;;;;;;5086415;28;20051;-92
2021/07/15 08:19:02;;;;;;;10.95;2.88;;;28.60;99.20;;;;;;5071686;28;20070;-93
2021/07/15 08:21:30;;;;;;;12.68;3.25;;;28.70;98.90;;;;;;5072483;28;20111;-91
2021/07/15 08:23:56;;;;;;;7.55;2.70;;;28.80;99.00;;;;;;5090404;28;20462;-94
2021/07/15 08:26:22;;;;;;;11.38;3.28;;;28.80;98.30;;;;;;5094840;28;20107;-93
2021/07/15 08:28:48;;;;;;;9.02;2.50;;;28.90;99.90;;;;;;5073746;28;20028;-92
2021/07/15 08:31:15;;;;;;;9.55;3.70;;;29.10;99.90;;;;;;5092184;28;20039;-92
2021/07/15 08:33:40;;;;;;;10.63;3.08;;;29.20;98.80;;;;;;5091888;28;20020;-92
2021/07/15 08:36:06;;;;;;;10.98;2.97;;;29.40;99.60;;;;;;5093732;28;20039;-92
2021/07/15 08:38:32;;;;;;;8.00;3.45;;;29.50;98.10;;;;;;5086687;28;20036;-92
2021/07/15 08:40:57;;;;;;;10.85;3.13;;;29.70;98.50;;;;;;5076722;28;20136;-93
2021/07/15 08:43:23;;;;;;;9.80;3.28;;;29.90;97.80;;;;;;5065194;28;20033;-90
2021/07/15 08:45:50;;;;;;;8.68;3.67;;;29.90;99.30;;;;;;5074553;28;20086;-92
2021/07/15 08:48:19;;;;;;;6.95;2.80;;;29.90;99.90;;;;;;5090762;28;20020;-93
2021/07/15 08:50:45;;;;;;;8.10;2.78;;;29.80;99.90;;;;;;5074438;28;20093;-90
2021/07/15 08:53:11;;;;;;;7.28;2.78;;;29.80;99.90;;;;;;5074716;28;20468;-93
2021/07/15 08:58:19;;;;;;;5.25;2.80;;;29.70;99.90;;;;;;5079046;28;20028;-93
2021/07/15 09:00:47;;;;;;;12.00;3.53;;;29.50;99.90;;;;;;5094027;28;20031;-91
2021/07/15 09:03:13;;;;;;;19.08;4.70;;;29.50;99.90;;;;;;5092963;28;20464;-92
2021/07/15 09:05:40;;;;;;;15.27;4.07;;;29.50;99.90;;;;;;5076129;28;20032;-92
2021/07/15 09:08:06;;;;;;;8.35;2.90;;;29.50;99.90;;;;;;5096327;28;20051;-92
2021/07/15 09:10:32;;;;;;;8.77;3.10;;;29.40;99.90;;;;;;5106343;28;20047;-92
2021/07/15 09:12:59;;;;;;;23.88;3.83;;;29.30;99.90;;;;;;5111570;28;20000;-91
2021/07/15 09:15:26;;;;;;;9.25;3.80;;;29.20;99.90;;;;;;5088221;28;20036;-91
2021/07/15 09:17:52;;;;;;;10.50;2.72;;;29.20;99.90;;;;;;5077557;28;20031;-91
2021/07/15 09:20:19;;;;;;;6.50;2.28;;;29.20;99.90;;;;;;5073051;28;20021;-92
2021/07/15 09:23:04;;;;;;;8.00;2.88;;;29.20;99.90;;;;;;5071339;28;20026;-92
2021/07/15 09:25:49;;;;;;;7.93;2.65;;;28.90;99.90;;;;;;5081448;28;20028;-92
2021/07/15 09:28:23;;;;;;;11.05;3.53;;;28.80;99.90;;;;;;5084238;28;20041;-92
2021/07/15 09:30:49;;;;;;;11.40;4.10;;;28.70;99.90;;;;;;5076366;28;20503;-91
2021/07/15 09:33:15;;;;;;;11.60;3.35;;;28.70;99.90;;;;;;5074920;28;20030;-89
2021/07/15 09:35:46;;;;;;;10.52;2.78;;;28.80;99.90;;;;;;5092096;28;20037;-92
2021/07/15 09:38:19;;;;;;;13.43;3.58;;;28.80;99.90;;;;;;5091853;28;20047;-92
2021/07/15 09:40:55;;;;;;;13.90;3.13;;;28.90;99.90;;;;;;5064310;28;20111;-92
2021/07/15 09:43:27;;;;;;;11.45;3.30;;;29.00;99.90;;;;;;5067113;28;20378;-91
2021/07/15 09:45:54;;;;;;;10.63;3.70;;;29.00;99.90;;;;;;5069534;28;20147;-94
2021/07/15 09:48:25;;;;;;;8.25;3.00;;;28.90;99.90;;;;;;5059042;28;20081;-93
2021/07/15 09:50:53;;;;;;;9.48;3.60;;;28.90;99.90;;;;;;5094750;28;20036;-94
2021/07/15 09:53:23;;;;;;;11.40;3.13;;;28.90;99.90;;;;;;5091896;28;20031;-93
2021/07/15 09:56:00;;;;;;;9.38;3.53;;;28.90;99.90;;;;;;5062888;28;20476;-93
2021/07/15 09:58:31;;;;;;;7.68;2.95;;;29.10;99.90;;;;;;5067100;28;20024;-92
2021/07/15 10:01:08;;;;;;;12.77;4.13;;;29.20;99.90;;;;;;5085803;28;20025;-93
2021/07/15 10:03:36;;;;;;;11.10;2.97;;;29.30;99.60;;;;;;5058694;28;20024;-94
2021/07/15 10:06:03;;;;;;;7.03;3.08;;;29.30;99.70;;;;;;5075717;28;20064;-92
2021/07/15 10:08:30;;;;;;;14.48;4.05;;;29.40;98.90;;;;;;5085365;28;20034;-93
2021/07/15 10:11:15;;;;;;;6.28;2.70;;;29.60;97.40;;;;;;5074751;28;20067;-93
2021/07/15 10:13:42;;;;;;;6.10;2.92;;;29.80;96.90;;;;;;5075226;28;20029;-91
2021/07/15 10:16:09;;;;;;;8.52;3.13;;;29.90;95.60;;;;;;5083832;28;20032;-92
2021/07/15 10:18:50;;;;;;;11.68;3.30;;;30.20;96.60;;;;;;5076959;28;20024;-93
2021/07/15 10:21:22;;;;;;;12.82;4.00;;;30.40;96.50;;;;;;5092066;28;20020;-92
2021/07/15 10:23:48;;;;;;;10.10;3.47;;;30.50;97.40;;;;;;5069637;28;20134;-93
2021/07/15 10:26:14;;;;;;;12.27;3.38;;;30.60;97.00;;;;;;5074863;28;20025;-90
2021/07/15 10:28:46;;;;;;;11.07;3.42;;;30.50;96.00;;;;;;5068155;28;20080;-93
2021/07/15 10:31:12;;;;;;;8.73;3.65;;;30.40;95.30;;;;;;5085650;28;20025;-93
2021/07/15 10:33:40;;;;;;;12.63;3.25;;;30.40;95.50;;;;;;5097309;28;20024;-93
2021/07/15 10:36:06;;;;;;;18.00;4.20;;;30.20;94.10;;;;;;5094520;28;20028;-92
2021/07/15 10:38:44;;;;;;;11.45;3.60;;;30.10;94.30;;;;;;5100557;28;20135;-93
2021/07/15 10:41:11;;;;;;;7.97;3.25;;;29.90;93.20;;;;;;5082107;28;20020;-94
2021/07/15 10:43:38;;;;;;;12.18;3.67;;;30.00;93.60;;;;;;5093391;28;20024;-93
2021/07/15 10:46:04;;;;;;;13.30;4.47;;;29.70;93.10;;;;;;5083506;28;20511;-91
2021/07/15 10:48:33;;;;;;;11.05;4.13;;;29.80;92.60;;;;;;5058716;28;20387;-93
2021/07/15 10:51:02;;;;;;;9.63;4.38;;;30.00;93.20;;;;;;5088245;28;20114;-92
2021/07/15 10:53:29;;;;;;;8.25;3.67;;;30.10;92.80;;;;;;5072808;28;20423;-93
2021/07/15 10:55:56;;;;;;;12.57;4.20;;;30.10;93.80;;;;;;5075246;28;20024;-93
2021/07/15 10:58:51;;;;;;;12.23;4.20;;;30.10;92.80;;;;;;5068195;28;20020;-94
2021/07/15 11:01:41;;;;;;;8.65;4.20;;;29.80;92.00;;;;;;5096326;28;20101;-92
2021/07/15 11:04:11;;;;;;;;;;;29.80;93.30;;;;;;5095770;28;20020;-93
2021/07/15 11:06:52;;;;;;;12.55;3.90;;;29.80;92.60;;;;;;5096316;28;19931;-92
2021/07/15 11:09:23;;;;;;;10.57;3.92;;;29.70;93.30;;;;;;5094619;28;20020;-92
2021/07/15 11:11:50;;;;;;;8.77;4.32;;;29.70;93.40;;;;;;5058852;28;20036;-92
2021/07/15 11:14:35;;;;;;;11.02;3.80;;;29.60;94.30;;;;;;5078809;28;20020;-92
2021/07/15 11:17:02;;;;;;;11.25;3.83;;;29.50;94.80;;;;;;5084906;28;20020;-92
2021/07/15 11:20:00;;;;;;;9.45;3.78;;;29.40;94.10;;;;;;5070194;28;20039;-94
2021/07/15 11:22:54;;;;;;;9.68;3.70;;;29.40;93.20;;;;;;5078181;28;20528;-92
2021/07/15 11:25:35;;;;;;;10.48;4.10;;;29.20;93.30;;;;;;5093808;28;20036;-93
2021/07/15 11:28:02;;;;;;;9.32;3.67;;;29.30;94.00;;;;;;5087859;28;20016;-90
2021/07/15 11:30:50;;;;;;;10.52;3.85;;;29.30;93.70;;;;;;5093249;28;20063;-90
2021/07/15 11:33:21;;;;;;;8.20;3.40;;;29.30;93.60;;;;;;5076883;28;20449;-90
2021/07/15 11:36:05;;;;;;;8.15;3.65;;;29.30;93.60;;;;;;5057657;28;20060;-90
2021/07/15 11:38:32;;;;;;;9.40;3.40;;;29.50;94.20;;;;;;5095172;28;20040;-92
2021/07/15 11:41:05;;;;;;;10.30;3.83;;;29.40;93.30;;;;;;5076823;28;20059;-91
2021/07/15 11:43:48;;;;;;;8.25;3.35;;;29.50;94.00;;;;;;5095675;28;20016;-91
2021/07/15 11:46:18;;;;;;;11.65;3.92;;;29.60;94.00;;;;;;5088859;28;20040;-92
2021/07/15 11:48:45;;;;;;;7.68;3.03;;;29.50;94.00;;;;;;5085445;28;20020;-92
2021/07/15 11:51:25;;;;;;;9.88;3.38;;;29.40;93.80;;;;;;5058163;28;20039;-91
2021/07/15 11:54:27;;;;;;;8.55;2.95;;;29.30;93.40;;;;;;5076282;28;20024;-90
2021/07/15 11:57:11;;;;;;;10.88;3.80;;;29.20;92.80;;;;;;5071870;28;20451;-90
2021/07/15 11:59:38;;;;;;;9.63;4.03;;;29.40;93.70;;;;;;5088663;28;20100;-91
2021/07/15 12:02:06;;;;;;;7.93;3.13;;;29.30;93.00;;;;;;5062086;28;20545;-92
2021/07/15 12:05:03;;;;;;;8.45;3.17;;;29.40;93.60;;;;;;5092885;28;20074;-93
2021/07/15 12:07:28;;;;;;;10.32;2.95;;;29.40;93.70;;;;;;5116593;28;20238;-92
2021/07/15 12:09:54;;;;;;;8.73;3.00;;;29.40;92.50;;;;;;5093582;28;20058;-92
2021/07/15 12:12:20;;;;;;;9.85;4.18;;;29.40;92.60;;;;;;5058586;28;20024;-91
2021/07/15 12:14:53;;;;;;;8.00;3.05;;;29.50;94.60;;;;;;5077757;28;20020;-91
2021/07/15 12:17:19;;;;;;;10.80;3.10;;;29.60;96.80;;;;;;5094398;28;20056;-92
2021/07/15 12:20:00;;;;;;;7.60;3.25;;;29.70;95.20;;;;;;5076604;28;20020;-92
2021/07/15 12:22:27;;;;;;;6.65;2.97;;;29.60;94.90;;;;;;5065768;28;20036;-93
2021/07/15 12:25:28;;;;;;;11.63;3.45;;;29.60;95.50;;;;;;5080505;28;20017;-93
2021/07/15 12:27:57;;;;;;;8.20;3.30;;;29.60;92.00;;;;;;5058775;28;20024;-91
2021/07/15 12:30:36;;;;;;;9.48;3.50;;;29.70;92.20;;;;;;5094435;28;20426;-90
2021/07/15 12:33:02;;;;;;;9.40;3.20;;;29.70;94.00;;;;;;5077733;28;20023;-93
2021/07/15 12:35:31;;;;;;;11.05;3.42;;;29.80;94.40;;;;;;5078018;28;20406;-91
2021/07/15 12:37:58;;;;;;;15.88;4.03;;;29.70;95.00;;;;;;5050659;28;20045;-93
2021/07/15 12:40:29;;;;;;;12.23;3.55;;;29.70;94.20;;;;;;5043054;28;20104;-91
2021/07/15 12:43:17;;;;;;;9.63;4.22;;;29.90;92.90;;;;;;5055390;28;20021;-91
2021/07/15 12:45:47;;;;;;;8.15;3.13;;;29.80;91.60;;;;;;5034350;28;20021;-92
2021/07/15 12:48:13;;;;;;;;;;;29.90;91.80;;;;;;5036540;28;20436;-91
2021/07/15 12:50:39;;;;;;;12.38;4.10;;;29.90;91.60;;;;;;5051141;28;19924;-91
2021/07/15 12:53:19;;;;;;;12.02;3.90;;;29.90;90.60;;;;;;5055543;28;20411;-92
2021/07/15 12:55:46;;;;;;;10.25;4.13;;;30.00;91.60;;;;;;5063086;28;20025;-92
2021/07/15 12:58:13;;;;;;;14.00;3.60;;;29.90;90.30;;;;;;5062413;28;20025;-90